sensor_id;sensor_type;location;lat;lon;timestamp;P1;durP1;ratioP1;P2;durP2;ratioP2
75413;SDS011;64758;52.122;5.404;2023-07-13T00:01:31;5.13;;;1.10;;
75413;SDS011;64758;52.122;5.404;2023-07-13T00:03:58;5.32;;;0.70;;
75413;SDS011;64758;52.122;5.404;2023-07-13T00:06:26;4.78;;;1.00;;
75413;SDS011;64758;52.122;5.404;2023-07-13T00:08:56;6.78;;;0.80;;
75413;SDS011;64758;52.122;5.404;2023-07-13T00:11:23;7.40;;;0.98;;
75413;SDS011;64758;52.122;5.404;2023-07-13T00:13:49;5.53;;;0.90;;
75413;SDS011;64758;52.122;5.404;2023-07-13T00:16:17;6.60;;;0.88;;
75413;SDS011;64758;52.122;5.404;2023-07-13T00:18:45;5.97;;;0.73;;
75413;SDS011;64758;52.122;5.404;2023-07-13T00:21:12;6.60;;;1.13;;
75413;SDS011;64758;52.122;5.404;2023-07-13T00:23:40;6.20;;;1.10;;
75413;SDS011;64758;52.122;5.404;2023-07-13T00:26:08;4.97;;;1.27;;
75413;SDS011;64758;52.122;5.404;2023-07-13T00:28:37;5.97;;;0.85;;
75413;SDS011;64758;52.122;5.404;2023-07-13T00:31:08;4.72;;;0.85;;
75413;SDS011;64758;52.122;5.404;2023-07-13T00:33:35;5.10;;;0.90;;
75413;SDS011;64758;52.122;5.404;2023-07-13T00:36:03;5.00;;;0.95;;
75413;SDS011;64758;52.122;5.404;2023-07-13T00:38:30;6.77;;;0.73;;
75413;SDS011;64758;52.122;5.404;2023-07-13T00:40:57;6.05;;;0.85;;
75413;SDS011;64758;52.122;5.404;2023-07-13T00:43:25;6.38;;;0.90;;
75413;SDS011;64758;52.122;5.404;2023-07-13T00:48:20;7.13;;;0.80;;
75413;SDS011;64758;52.122;5.404;2023-07-13T00:50:50;4.20;;;1.00;;
75413;SDS011;64758;52.122;5.404;2023-07-13T00:53:21;5.95;;;1.08;;
75413;SDS011;64758;52.122;5.404;2023-07-13T00:55:48;4.97;;;0.70;;
75413;SDS011;64758;52.122;5.404;2023-07-13T00:58:17;8.32;;;1.35;;
75413;SDS011;64758;52.122;5.404;2023-07-13T01:00:43;8.65;;;1.05;;
75413;SDS011;64758;52.122;5.404;2023-07-13T01:03:13;4.53;;;0.70;;
75413;SDS011;64758;52.122;5.404;2023-07-13T01:05:39;5.68;;;1.00;;
75413;SDS011;64758;52.122;5.404;2023-07-13T01:08:07;4.22;;;1.40;;
75413;SDS011;64758;52.122;5.404;2023-07-13T01:10:34;4.05;;;0.90;;
75413;SDS011;64758;52.122;5.404;2023-07-13T01:13:05;3.35;;;1.00;;
75413;SDS011;64758;52.122;5.404;2023-07-13T01:15:43;10.33;;;1.73;;
75413;SDS011;64758;52.122;5.404;2023-07-13T01:18:15;6.78;;;0.98;;
75413;SDS011;64758;52.122;5.404;2023-07-13T01:21:05;4.72;;;0.90;;
75413;SDS011;64758;52.122;5.404;2023-07-13T01:23:31;4.90;;;0.70;;
75413;SDS011;64758;52.122;5.404;2023-07-13T01:25:59;3.97;;;1.02;;
75413;SDS011;64758;52.122;5.404;2023-07-13T01:28:26;3.83;;;0.80;;
75413;SDS011;64758;52.122;5.404;2023-07-13T01:30:55;5.25;;;1.25;;
75413;SDS011;64758;52.122;5.404;2023-07-13T01:33:23;5.05;;;1.00;;
75413;SDS011;64758;52.122;5.404;2023-07-13T01:35:51;3.08;;;1.02;;
75413;SDS011;64758;52.122;5.404;2023-07-13T01:38:19;4.10;;;0.73;;
75413;SDS011;64758;52.122;5.404;2023-07-13T01:40:47;4.33;;;1.40;;
75413;SDS011;64758;52.122;5.404;2023-07-13T01:43:13;4.65;;;0.85;;
75413;SDS011;64758;52.122;5.404;2023-07-13T01:45:40;5.43;;;0.82;;
75413;SDS011;64758;52.122;5.404;2023-07-13T01:48:10;3.85;;;0.90;;
75413;SDS011;64758;52.122;5.404;2023-07-13T01:50:37;5.32;;;0.88;;
75413;SDS011;64758;52.122;5.404;2023-07-13T01:53:04;8.10;;;0.80;;
75413;SDS011;64758;52.122;5.404;2023-07-13T01:55:31;4.45;;;1.00;;
75413;SDS011;64758;52.122;5.404;2023-07-13T01:57:58;6.97;;;1.00;;
75413;SDS011;64758;52.122;5.404;2023-07-13T02:00:25;5.85;;;1.27;;
75413;SDS011;64758;52.122;5.404;2023-07-13T02:02:51;3.55;;;1.02;;
75413;SDS011;64758;52.122;5.404;2023-07-13T02:05:18;5.53;;;0.87;;
75413;SDS011;64758;52.122;5.404;2023-07-13T02:07:45;4.32;;;1.00;;
75413;SDS011;64758;52.122;5.404;2023-07-13T02:10:12;4.70;;;1.20;;
75413;SDS011;64758;52.122;5.404;2023-07-13T02:12:39;4.45;;;1.00;;
75413;SDS011;64758;52.122;5.404;2023-07-13T02:15:06;2.92;;;0.93;;
75413;SDS011;64758;52.122;5.404;2023-07-13T02:17:34;8.70;;;0.90;;
75413;SDS011;64758;52.122;5.404;2023-07-13T02:20:02;4.85;;;1.30;;
75413;SDS011;64758;52.122;5.404;2023-07-13T02:22:30;5.35;;;1.23;;
75413;SDS011;64758;52.122;5.404;2023-07-13T02:24:57;2.90;;;0.90;;
75413;SDS011;64758;52.122;5.404;2023-07-13T02:27:24;7.38;;;1.35;;
75413;SDS011;64758;52.122;5.404;2023-07-13T02:29:51;5.10;;;0.90;;
75413;SDS011;64758;52.122;5.404;2023-07-13T02:32:18;6.80;;;0.98;;
75413;SDS011;64758;52.122;5.404;2023-07-13T02:34:44;4.43;;;1.00;;
75413;SDS011;64758;52.122;5.404;2023-07-13T02:37:11;5.05;;;1.00;;
75413;SDS011;64758;52.122;5.404;2023-07-13T02:39:38;5.38;;;1.30;;
75413;SDS011;64758;52.122;5.404;2023-07-13T02:42:04;6.70;;;1.50;;
75413;SDS011;64758;52.122;5.404;2023-07-13T02:44:31;5.18;;;1.20;;
75413;SDS011;64758;52.122;5.404;2023-07-13T02:46:58;4.18;;;1.38;;
75413;SDS011;64758;52.122;5.404;2023-07-13T02:49:25;4.78;;;1.20;;
75413;SDS011;64758;52.122;5.404;2023-07-13T02:51:51;5.85;;;1.20;;
75413;SDS011;64758;52.122;5.404;2023-07-13T02:54:18;6.07;;;1.23;;
75413;SDS011;64758;52.122;5.404;2023-07-13T02:56:44;9.15;;;1.42;;
75413;SDS011;64758;52.122;5.404;2023-07-13T02:59:11;4.28;;;1.33;;
75413;SDS011;64758;52.122;5.404;2023-07-13T03:01:38;4.38;;;1.60;;
75413;SDS011;64758;52.122;5.404;2023-07-13T03:04:05;7.68;;;1.42;;
75413;SDS011;64758;52.122;5.404;2023-07-13T03:06:32;5.87;;;1.20;;
75413;SDS011;64758;52.122;5.404;2023-07-13T03:08:59;4.10;;;1.20;;
75413;SDS011;64758;52.122;5.404;2023-07-13T03:11:30;5.18;;;1.98;;
75413;SDS011;64758;52.122;5.404;2023-07-13T03:13:57;7.72;;;1.50;;
75413;SDS011;64758;52.122;5.404;2023-07-13T03:16:24;7.13;;;1.50;;
75413;SDS011;64758;52.122;5.404;2023-07-13T03:18:50;6.70;;;1.30;;
75413;SDS011;64758;52.122;5.404;2023-07-13T03:21:17;5.85;;;1.85;;
75413;SDS011;64758;52.122;5.404;2023-07-13T03:23:43;6.43;;;1.40;;
75413;SDS011;64758;52.122;5.404;2023-07-13T03:26:12;8.68;;;1.65;;
75413;SDS011;64758;52.122;5.404;2023-07-13T03:28:40;4.45;;;1.45;;
75413;SDS011;64758;52.122;5.404;2023-07-13T03:31:09;5.07;;;1.83;;
75413;SDS011;64758;52.122;5.404;2023-07-13T03:33:38;5.85;;;1.45;;
75413;SDS011;64758;52.122;5.404;2023-07-13T03:36:05;7.70;;;2.38;;
75413;SDS011;64758;52.122;5.404;2023-07-13T03:38:33;6.70;;;1.65;;
75413;SDS011;64758;52.122;5.404;2023-07-13T03:41:00;7.53;;;1.77;;
75413;SDS011;64758;52.122;5.404;2023-07-13T03:43:26;7.20;;;1.60;;
75413;SDS011;64758;52.122;5.404;2023-07-13T03:45:53;6.65;;;1.67;;
75413;SDS011;64758;52.122;5.404;2023-07-13T03:48:19;10.43;;;2.10;;
75413;SDS011;64758;52.122;5.404;2023-07-13T03:50:47;5.38;;;2.10;;
75413;SDS011;64758;52.122;5.404;2023-07-13T03:53:13;7.95;;;1.45;;
75413;SDS011;64758;52.122;5.404;2023-07-13T03:55:40;7.17;;;1.77;;
75413;SDS011;64758;52.122;5.404;2023-07-13T03:58:23;6.90;;;1.60;;
75413;SDS011;64758;52.122;5.404;2023-07-13T04:00:55;5.43;;;1.70;;
75413;SDS011;64758;52.122;5.404;2023-07-13T04:03:22;6.45;;;2.30;;
75413;SDS011;64758;52.122;5.404;2023-07-13T04:05:49;3.95;;;1.60;;
75413;SDS011;64758;52.122;5.404;2023-07-13T04:08:16;7.93;;;2.40;;
75413;SDS011;64758;52.122;5.404;2023-07-13T04:10:43;10.15;;;1.75;;
75413;SDS011;64758;52.122;5.404;2023-07-13T04:13:09;9.00;;;1.60;;
75413;SDS011;64758;52.122;5.404;2023-07-13T04:15:36;11.27;;;1.77;;
75413;SDS011;64758;52.122;5.404;2023-07-13T04:18:03;9.75;;;1.98;;
75413;SDS011;64758;52.122;5.404;2023-07-13T04:20:29;8.70;;;2.10;;
75413;SDS011;64758;52.122;5.404;2023-07-13T04:22:56;5.85;;;1.58;;
75413;SDS011;64758;52.122;5.404;2023-07-13T04:25:23;7.10;;;2.08;;
75413;SDS011;64758;52.122;5.404;2023-07-13T04:27:50;6.97;;;1.60;;
75413;SDS011;64758;52.122;5.404;2023-07-13T04:30:17;6.65;;;2.25;;
75413;SDS011;64758;52.122;5.404;2023-07-13T04:32:44;6.80;;;1.73;;
75413;SDS011;64758;52.122;5.404;2023-07-13T04:35:10;8.98;;;1.92;;
75413;SDS011;64758;52.122;5.404;2023-07-13T04:37:37;6.18;;;1.90;;
75413;SDS011;64758;52.122;5.404;2023-07-13T04:40:04;8.57;;;2.05;;
75413;SDS011;64758;52.122;5.404;2023-07-13T04:42:31;4.45;;;1.95;;
75413;SDS011;64758;52.122;5.404;2023-07-13T04:44:57;7.57;;;2.13;;
75413;SDS011;64758;52.122;5.404;2023-07-13T04:47:24;8.90;;;2.30;;
75413;SDS011;64758;52.122;5.404;2023-07-13T04:49:50;9.57;;;1.92;;
75413;SDS011;64758;52.122;5.404;2023-07-13T04:52:17;6.75;;;2.05;;
75413;SDS011;64758;52.122;5.404;2023-07-13T04:54:43;10.13;;;2.28;;
75413;SDS011;64758;52.122;5.404;2023-07-13T04:57:10;6.43;;;2.00;;
75413;SDS011;64758;52.122;5.404;2023-07-13T04:59:36;9.05;;;2.22;;
75413;SDS011;64758;52.122;5.404;2023-07-13T05:02:03;7.35;;;2.30;;
75413;SDS011;64758;52.122;5.404;2023-07-13T05:04:30;10.60;;;2.72;;
75413;SDS011;64758;52.122;5.404;2023-07-13T05:06:56;5.80;;;2.40;;
75413;SDS011;64758;52.122;5.404;2023-07-13T05:09:23;6.90;;;2.60;;
75413;SDS011;64758;52.122;5.404;2023-07-13T05:11:49;8.60;;;2.72;;
75413;SDS011;64758;52.122;5.404;2023-07-13T05:14:16;11.40;;;2.50;;
75413;SDS011;64758;52.122;5.404;2023-07-13T05:16:42;8.80;;;2.15;;
75413;SDS011;64758;52.122;5.404;2023-07-13T05:19:09;9.63;;;2.65;;
75413;SDS011;64758;52.122;5.404;2023-07-13T05:21:36;14.07;;;2.67;;
75413;SDS011;64758;52.122;5.404;2023-07-13T05:24:04;9.00;;;2.65;;
75413;SDS011;64758;52.122;5.404;2023-07-13T05:26:49;12.75;;;2.95;;
75413;SDS011;64758;52.122;5.404;2023-07-13T05:29:16;9.38;;;3.00;;
75413;SDS011;64758;52.122;5.404;2023-07-13T05:31:43;13.85;;;3.75;;
75413;SDS011;64758;52.122;5.404;2023-07-13T05:34:09;7.97;;;2.90;;
75413;SDS011;64758;52.122;5.404;2023-07-13T05:36:36;13.25;;;3.15;;
75413;SDS011;64758;52.122;5.404;2023-07-13T05:39:02;11.57;;;4.07;;
75413;SDS011;64758;52.122;5.404;2023-07-13T05:41:30;11.63;;;4.70;;
75413;SDS011;64758;52.122;5.404;2023-07-13T05:43:56;10.65;;;4.00;;
75413;SDS011;64758;52.122;5.404;2023-07-13T05:46:23;11.90;;;4.80;;
75413;SDS011;64758;52.122;5.404;2023-07-13T05:48:49;14.95;;;4.30;;
75413;SDS011;64758;52.122;5.404;2023-07-13T05:51:16;13.18;;;4.60;;
75413;SDS011;64758;52.122;5.404;2023-07-13T05:53:42;11.88;;;5.50;;
75413;SDS011;64758;52.122;5.404;2023-07-13T05:56:09;14.52;;;5.47;;
75413;SDS011;64758;52.122;5.404;2023-07-13T05:58:36;18.47;;;5.33;;
75413;SDS011;64758;52.122;5.404;2023-07-13T06:01:04;13.93;;;5.18;;
75413;SDS011;64758;52.122;5.404;2023-07-13T06:03:33;12.60;;;5.10;;
75413;SDS011;64758;52.122;5.404;2023-07-13T06:06:00;14.52;;;5.10;;
75413;SDS011;64758;52.122;5.404;2023-07-13T06:08:27;16.73;;;6.13;;
75413;SDS011;64758;52.122;5.404;2023-07-13T06:10:54;14.77;;;5.03;;
75413;SDS011;64758;52.122;5.404;2023-07-13T06:13:27;15.15;;;5.72;;
75413;SDS011;64758;52.122;5.404;2023-07-13T06:15:54;13.82;;;5.63;;
75413;SDS011;64758;52.122;5.404;2023-07-13T06:18:20;12.93;;;4.95;;
75413;SDS011;64758;52.122;5.404;2023-07-13T06:20:47;18.45;;;5.88;;
75413;SDS011;64758;52.122;5.404;2023-07-13T06:23:13;20.20;;;5.57;;
75413;SDS011;64758;52.122;5.404;2023-07-13T06:25:40;15.73;;;6.32;;
75413;SDS011;64758;52.122;5.404;2023-07-13T06:28:06;11.27;;;6.03;;
75413;SDS011;64758;52.122;5.404;2023-07-13T06:30:33;15.77;;;6.20;;
75413;SDS011;64758;52.122;5.404;2023-07-13T06:33:00;13.48;;;6.05;;
75413;SDS011;64758;52.122;5.404;2023-07-13T06:35:26;14.20;;;5.80;;
75413;SDS011;64758;52.122;5.404;2023-07-13T06:37:53;13.07;;;6.63;;
75413;SDS011;64758;52.122;5.404;2023-07-13T06:40:20;15.68;;;6.57;;
75413;SDS011;64758;52.122;5.404;2023-07-13T06:42:46;13.40;;;6.10;;
75413;SDS011;64758;52.122;5.404;2023-07-13T06:45:13;10.82;;;6.03;;
75413;SDS011;64758;52.122;5.404;2023-07-13T06:47:39;12.60;;;6.43;;
75413;SDS011;64758;52.122;5.404;2023-07-13T06:50:06;15.05;;;6.18;;
75413;SDS011;64758;52.122;5.404;2023-07-13T06:52:32;11.80;;;5.72;;
75413;SDS011;64758;52.122;5.404;2023-07-13T06:54:59;13.32;;;5.72;;
75413;SDS011;64758;52.122;5.404;2023-07-13T06:57:26;14.40;;;6.30;;
75413;SDS011;64758;52.122;5.404;2023-07-13T06:59:53;13.40;;;6.80;;
75413;SDS011;64758;52.122;5.404;2023-07-13T07:02:20;15.63;;;6.80;;
75413;SDS011;64758;52.122;5.404;2023-07-13T07:04:46;16.75;;;6.75;;
75413;SDS011;64758;52.122;5.404;2023-07-13T07:07:13;15.02;;;6.93;;
75413;SDS011;64758;52.122;5.404;2023-07-13T07:09:39;15.73;;;6.88;;
75413;SDS011;64758;52.122;5.404;2023-07-13T07:12:06;13.57;;;6.03;;
75413;SDS011;64758;52.122;5.404;2023-07-13T07:14:33;22.33;;;7.10;;
75413;SDS011;64758;52.122;5.404;2023-07-13T07:17:00;14.43;;;6.90;;
75413;SDS011;64758;52.122;5.404;2023-07-13T07:19:28;16.67;;;7.47;;
75413;SDS011;64758;52.122;5.404;2023-07-13T07:21:56;15.93;;;6.95;;
75413;SDS011;64758;52.122;5.404;2023-07-13T07:24:22;17.43;;;6.87;;
75413;SDS011;64758;52.122;5.404;2023-07-13T07:26:49;11.35;;;6.40;;
75413;SDS011;64758;52.122;5.404;2023-07-13T07:29:18;12.75;;;6.97;;
75413;SDS011;64758;52.122;5.404;2023-07-13T07:31:48;14.30;;;7.28;;
75413;SDS011;64758;52.122;5.404;2023-07-13T07:34:30;14.45;;;7.00;;
75413;SDS011;64758;52.122;5.404;2023-07-13T07:36:59;20.70;;;6.40;;
75413;SDS011;64758;52.122;5.404;2023-07-13T07:39:32;16.08;;;7.45;;
75413;SDS011;64758;52.122;5.404;2023-07-13T07:41:59;15.82;;;7.45;;
75413;SDS011;64758;52.122;5.404;2023-07-13T07:44:25;18.55;;;7.90;;
75413;SDS011;64758;52.122;5.404;2023-07-13T07:46:53;16.85;;;7.20;;
75413;SDS011;64758;52.122;5.404;2023-07-13T07:49:20;18.77;;;7.23;;
75413;SDS011;64758;52.122;5.404;2023-07-13T07:51:47;14.15;;;7.32;;
75413;SDS011;64758;52.122;5.404;2023-07-13T07:54:14;15.98;;;7.88;;
75413;SDS011;64758;52.122;5.404;2023-07-13T07:56:52;18.92;;;7.65;;
75413;SDS011;64758;52.122;5.404;2023-07-13T07:59:21;19.67;;;7.70;;
75413;SDS011;64758;52.122;5.404;2023-07-13T08:01:51;12.90;;;6.97;;
75413;SDS011;64758;52.122;5.404;2023-07-13T08:04:20;17.58;;;6.97;;
75413;SDS011;64758;52.122;5.404;2023-07-13T08:06:50;18.48;;;7.07;;
75413;SDS011;64758;52.122;5.404;2023-07-13T08:09:16;13.80;;;7.53;;
75413;SDS011;64758;52.122;5.404;2023-07-13T08:11:43;15.80;;;7.10;;
75413;SDS011;64758;52.122;5.404;2023-07-13T08:14:12;14.40;;;6.70;;
75413;SDS011;64758;52.122;5.404;2023-07-13T08:16:39;12.63;;;6.47;;
75413;SDS011;64758;52.122;5.404;2023-07-13T08:19:06;12.10;;;5.97;;
75413;SDS011;64758;52.122;5.404;2023-07-13T08:21:33;12.57;;;6.50;;
75413;SDS011;64758;52.122;5.404;2023-07-13T08:23:59;15.98;;;6.00;;
75413;SDS011;64758;52.122;5.404;2023-07-13T08:26:26;13.97;;;5.63;;
75413;SDS011;64758;52.122;5.404;2023-07-13T08:28:53;11.75;;;5.15;;
75413;SDS011;64758;52.122;5.404;2023-07-13T08:31:19;12.55;;;4.95;;
75413;SDS011;64758;52.122;5.404;2023-07-13T08:33:46;10.88;;;4.82;;
75413;SDS011;64758;52.122;5.404;2023-07-13T08:36:12;9.10;;;4.85;;
75413;SDS011;64758;52.122;5.404;2023-07-13T08:38:39;11.73;;;4.73;;
75413;SDS011;64758;52.122;5.404;2023-07-13T08:41:10;7.85;;;4.20;;
75413;SDS011;64758;52.122;5.404;2023-07-13T08:43:39;6.90;;;3.47;;
75413;SDS011;64758;52.122;5.404;2023-07-13T08:46:09;11.25;;;2.97;;
75413;SDS011;64758;52.122;5.404;2023-07-13T08:48:43;8.43;;;3.08;;
75413;SDS011;64758;52.122;5.404;2023-07-13T08:53:41;3.35;;;1.90;;
75413;SDS011;64758;52.122;5.404;2023-07-13T08:56:16;5.15;;;1.67;;
75413;SDS011;64758;52.122;5.404;2023-07-13T08:58:54;5.53;;;1.65;;
75413;SDS011;64758;52.122;5.404;2023-07-13T09:04:34;3.93;;;1.30;;
75413;SDS011;64758;52.122;5.404;2023-07-13T09:12:15;6.10;;;1.65;;
75413;SDS011;64758;52.122;5.404;2023-07-13T09:14:52;4.50;;;1.85;;
75413;SDS011;64758;52.122;5.404;2023-07-13T09:17:23;4.33;;;2.00;;
75413;SDS011;64758;52.122;5.404;2023-07-13T09:20:00;3.33;;;1.58;;
75413;SDS011;64758;52.122;5.404;2023-07-13T09:22:34;4.75;;;1.73;;
75413;SDS011;64758;52.122;5.404;2023-07-13T09:28:03;5.47;;;1.65;;
75413;SDS011;64758;52.122;5.404;2023-07-13T09:33:10;4.38;;;1.73;;
75413;SDS011;64758;52.122;5.404;2023-07-13T09:35:36;7.00;;;1.92;;
75413;SDS011;64758;52.122;5.404;2023-07-13T09:38:13;6.88;;;1.90;;
75413;SDS011;64758;52.122;5.404;2023-07-13T09:43:20;2.80;;;1.70;;
75413;SDS011;64758;52.122;5.404;2023-07-13T09:45:47;4.68;;;1.77;;
75413;SDS011;64758;52.122;5.404;2023-07-13T09:48:15;5.90;;;1.70;;
75413;SDS011;64758;52.122;5.404;2023-07-13T09:50:43;5.90;;;1.50;;
75413;SDS011;64758;52.122;5.404;2023-07-13T09:53:12;5.32;;;1.50;;
75413;SDS011;64758;52.122;5.404;2023-07-13T09:55:41;6.47;;;1.87;;
75413;SDS011;64758;52.122;5.404;2023-07-13T10:03:27;5.40;;;2.20;;
75413;SDS011;64758;52.122;5.404;2023-07-13T10:06:00;3.92;;;2.03;;
75413;SDS011;64758;52.122;5.404;2023-07-13T10:08:36;6.00;;;2.60;;
75413;SDS011;64758;52.122;5.404;2023-07-13T10:11:10;6.93;;;2.97;;
75413;SDS011;64758;52.122;5.404;2023-07-13T10:13:40;6.40;;;2.65;;
75413;SDS011;64758;52.122;5.404;2023-07-13T10:16:10;5.22;;;2.85;;
75413;SDS011;64758;52.122;5.404;2023-07-13T10:18:41;5.25;;;2.53;;
75413;SDS011;64758;52.122;5.404;2023-07-13T10:21:13;6.80;;;2.97;;
75413;SDS011;64758;52.122;5.404;2023-07-13T10:23:47;5.57;;;2.95;;
75413;SDS011;64758;52.122;5.404;2023-07-13T10:26:22;6.05;;;3.00;;
75413;SDS011;64758;52.122;5.404;2023-07-13T10:28:59;7.22;;;3.33;;
75413;SDS011;64758;52.122;5.404;2023-07-13T10:31:30;11.82;;;3.65;;
75413;SDS011;64758;52.122;5.404;2023-07-13T10:33:58;7.07;;;3.50;;
75413;SDS011;64758;52.122;5.404;2023-07-13T10:38:51;6.47;;;3.08;;
75413;SDS011;64758;52.122;5.404;2023-07-13T10:41:21;8.68;;;3.17;;
75413;SDS011;64758;52.122;5.404;2023-07-13T10:43:52;7.15;;;3.15;;
75413;SDS011;64758;52.122;5.404;2023-07-13T10:46:22;5.53;;;3.10;;
75413;SDS011;64758;52.122;5.404;2023-07-13T10:49:00;7.03;;;2.53;;
75413;SDS011;64758;52.122;5.404;2023-07-13T10:51:31;7.55;;;2.40;;
75413;SDS011;64758;52.122;5.404;2023-07-13T10:56:46;4.50;;;2.80;;
75413;SDS011;64758;52.122;5.404;2023-07-13T11:01:55;4.38;;;2.47;;
75413;SDS011;64758;52.122;5.404;2023-07-13T11:04:23;3.50;;;2.00;;
75413;SDS011;64758;52.122;5.404;2023-07-13T11:06:53;5.28;;;1.90;;
75413;SDS011;64758;52.122;5.404;2023-07-13T11:09:40;4.50;;;1.80;;
75413;SDS011;64758;52.122;5.404;2023-07-13T11:12:26;3.63;;;1.63;;
75413;SDS011;64758;52.122;5.404;2023-07-13T11:23:06;6.35;;;2.30;;
75413;SDS011;64758;52.122;5.404;2023-07-13T11:25:35;5.10;;;2.00;;
75413;SDS011;64758;52.122;5.404;2023-07-13T11:30:31;5.40;;;2.60;;
75413;SDS011;64758;52.122;5.404;2023-07-13T11:33:03;6.65;;;3.53;;
75413;SDS011;64758;52.122;5.404;2023-07-13T11:35:35;3.67;;;2.10;;
75413;SDS011;64758;52.122;5.404;2023-07-13T11:38:16;4.23;;;2.67;;
75413;SDS011;64758;52.122;5.404;2023-07-13T11:40:45;6.28;;;2.60;;
75413;SDS011;64758;52.122;5.404;2023-07-13T11:43:21;5.35;;;3.00;;
75413;SDS011;64758;52.122;5.404;2023-07-13T11:45:50;4.13;;;2.50;;
75413;SDS011;64758;52.122;5.404;2023-07-13T11:48:18;5.25;;;2.20;;
75413;SDS011;64758;52.122;5.404;2023-07-13T11:51:05;3.10;;;2.07;;
75413;SDS011;64758;52.122;5.404;2023-07-13T11:53:38;4.25;;;2.08;;
75413;SDS011;64758;52.122;5.404;2023-07-13T11:56:07;4.00;;;2.38;;
75413;SDS011;64758;52.122;5.404;2023-07-13T11:58:34;7.88;;;2.13;;
75413;SDS011;64758;52.122;5.404;2023-07-13T12:01:01;4.93;;;2.13;;
75413;SDS011;64758;52.122;5.404;2023-07-13T12:03:33;4.93;;;1.87;;
75413;SDS011;64758;52.122;5.404;2023-07-13T12:06:02;4.43;;;2.60;;
75413;SDS011;64758;52.122;5.404;2023-07-13T12:08:37;4.75;;;2.47;;
75413;SDS011;64758;52.122;5.404;2023-07-13T12:11:15;4.88;;;2.58;;
75413;SDS011;64758;52.122;5.404;2023-07-13T12:13:43;7.50;;;2.92;;
75413;SDS011;64758;52.122;5.404;2023-07-13T12:16:14;5.70;;;2.80;;
75413;SDS011;64758;52.122;5.404;2023-07-13T12:18:43;5.65;;;2.80;;
75413;SDS011;64758;52.122;5.404;2023-07-13T12:21:13;5.63;;;2.38;;
75413;SDS011;64758;52.122;5.404;2023-07-13T12:23:43;6.22;;;3.05;;
75413;SDS011;64758;52.122;5.404;2023-07-13T12:26:13;6.00;;;3.53;;
75413;SDS011;64758;52.122;5.404;2023-07-13T12:28:48;6.83;;;2.70;;
75413;SDS011;64758;52.122;5.404;2023-07-13T12:31:41;5.38;;;2.80;;
75413;SDS011;64758;52.122;5.404;2023-07-13T12:34:14;7.65;;;2.60;;
75413;SDS011;64758;52.122;5.404;2023-07-13T12:36:49;5.95;;;2.17;;
75413;SDS011;64758;52.122;5.404;2023-07-13T12:41:50;4.20;;;1.97;;
75413;SDS011;64758;52.122;5.404;2023-07-13T12:44:18;5.90;;;2.10;;
75413;SDS011;64758;52.122;5.404;2023-07-13T12:46:54;5.70;;;2.40;;
75413;SDS011;64758;52.122;5.404;2023-07-13T12:49:28;3.97;;;1.85;;
75413;SDS011;64758;52.122;5.404;2023-07-13T12:51:59;5.95;;;2.00;;
75413;SDS011;64758;52.122;5.404;2023-07-13T12:54:30;6.60;;;1.93;;
75413;SDS011;64758;52.122;5.404;2023-07-13T12:56:57;5.70;;;2.25;;
75413;SDS011;64758;52.122;5.404;2023-07-13T12:59:28;4.53;;;1.95;;
75413;SDS011;64758;52.122;5.404;2023-07-13T13:01:59;5.20;;;1.70;;
75413;SDS011;64758;52.122;5.404;2023-07-13T13:04:26;6.43;;;2.00;;
75413;SDS011;64758;52.122;5.404;2023-07-13T13:07:00;6.47;;;1.60;;
75413;SDS011;64758;52.122;5.404;2023-07-13T13:09:30;4.05;;;1.83;;
75413;SDS011;64758;52.122;5.404;2023-07-13T13:11:57;8.07;;;2.28;;
75413;SDS011;64758;52.122;5.404;2023-07-13T13:14:24;3.20;;;1.92;;
75413;SDS011;64758;52.122;5.404;2023-07-13T13:16:51;3.92;;;1.50;;
75413;SDS011;64758;52.122;5.404;2023-07-13T13:19:27;5.43;;;1.90;;
75413;SDS011;64758;52.122;5.404;2023-07-13T13:21:55;4.10;;;1.60;;
75413;SDS011;64758;52.122;5.404;2023-07-13T13:24:26;3.50;;;1.92;;
75413;SDS011;64758;52.122;5.404;2023-07-13T13:26:53;3.80;;;1.67;;
75413;SDS011;64758;52.122;5.404;2023-07-13T13:29:23;3.65;;;1.75;;
75413;SDS011;64758;52.122;5.404;2023-07-13T13:31:51;3.90;;;1.93;;
75413;SDS011;64758;52.122;5.404;2023-07-13T13:34:22;4.88;;;2.10;;
75413;SDS011;64758;52.122;5.404;2023-07-13T13:36:52;2.97;;;1.75;;
75413;SDS011;64758;52.122;5.404;2023-07-13T13:39:28;3.85;;;1.40;;
75413;SDS011;64758;52.122;5.404;2023-07-13T13:41:59;3.88;;;2.00;;
75413;SDS011;64758;52.122;5.404;2023-07-13T13:44:25;5.10;;;1.73;;
75413;SDS011;64758;52.122;5.404;2023-07-13T13:46:52;4.82;;;1.80;;
75413;SDS011;64758;52.122;5.404;2023-07-13T13:49:21;2.55;;;1.83;;
75413;SDS011;64758;52.122;5.404;2023-07-13T13:51:50;3.25;;;1.58;;
75413;SDS011;64758;52.122;5.404;2023-07-13T13:54:18;3.15;;;1.50;;
75413;SDS011;64758;52.122;5.404;2023-07-13T13:56:47;2.30;;;1.33;;
75413;SDS011;64758;52.122;5.404;2023-07-13T13:59:15;3.42;;;1.98;;
75413;SDS011;64758;52.122;5.404;2023-07-13T14:01:43;4.57;;;1.90;;
75413;SDS011;64758;52.122;5.404;2023-07-13T14:04:15;3.92;;;1.90;;
75413;SDS011;64758;52.122;5.404;2023-07-13T14:06:48;3.63;;;1.85;;
75413;SDS011;64758;52.122;5.404;2023-07-13T14:09:16;2.93;;;1.57;;
75413;SDS011;64758;52.122;5.404;2023-07-13T14:11:44;3.03;;;2.00;;
75413;SDS011;64758;52.122;5.404;2023-07-13T14:14:17;4.60;;;1.90;;
75413;SDS011;64758;52.122;5.404;2023-07-13T14:16:47;3.55;;;1.75;;
75413;SDS011;64758;52.122;5.404;2023-07-13T14:19:20;5.18;;;1.63;;
75413;SDS011;64758;52.122;5.404;2023-07-13T14:21:47;5.37;;;1.83;;
75413;SDS011;64758;52.122;5.404;2023-07-13T14:24:15;2.75;;;1.45;;
75413;SDS011;64758;52.122;5.404;2023-07-13T14:26:42;3.47;;;1.60;;
75413;SDS011;64758;52.122;5.404;2023-07-13T14:29:16;4.07;;;1.90;;
75413;SDS011;64758;52.122;5.404;2023-07-13T14:31:49;4.15;;;2.08;;
75413;SDS011;64758;52.122;5.404;2023-07-13T14:34:16;5.20;;;2.00;;
75413;SDS011;64758;52.122;5.404;2023-07-13T14:36:44;3.72;;;1.48;;
75413;SDS011;64758;52.122;5.404;2023-07-13T14:39:14;4.05;;;1.27;;
75413;SDS011;64758;52.122;5.404;2023-07-13T14:41:43;3.67;;;1.52;;
75413;SDS011;64758;52.122;5.404;2023-07-13T14:44:13;4.05;;;1.65;;
75413;SDS011;64758;52.122;5.404;2023-07-13T14:46:42;5.47;;;1.83;;
75413;SDS011;64758;52.122;5.404;2023-07-13T14:49:44;4.68;;;1.50;;
75413;SDS011;64758;52.122;5.404;2023-07-13T14:52:12;4.00;;;1.55;;
75413;SDS011;64758;52.122;5.404;2023-07-13T14:54:42;4.18;;;1.80;;
75413;SDS011;64758;52.122;5.404;2023-07-13T14:57:11;3.88;;;1.73;;
75413;SDS011;64758;52.122;5.404;2023-07-13T14:59:42;4.53;;;1.37;;
75413;SDS011;64758;52.122;5.404;2023-07-13T15:02:18;3.38;;;1.40;;
75413;SDS011;64758;52.122;5.404;2023-07-13T15:04:57;4.05;;;1.40;;
75413;SDS011;64758;52.122;5.404;2023-07-13T15:07:24;5.05;;;1.58;;
75413;SDS011;64758;52.122;5.404;2023-07-13T15:09:51;4.90;;;1.30;;
75413;SDS011;64758;52.122;5.404;2023-07-13T15:12:18;3.97;;;1.27;;
75413;SDS011;64758;52.122;5.404;2023-07-13T15:14:46;5.50;;;1.35;;
75413;SDS011;64758;52.122;5.404;2023-07-13T15:17:28;3.30;;;1.38;;
75413;SDS011;64758;52.122;5.404;2023-07-13T15:20:09;2.50;;;1.42;;
75413;SDS011;64758;52.122;5.404;2023-07-13T15:22:37;5.13;;;1.67;;
75413;SDS011;64758;52.122;5.404;2023-07-13T15:25:07;4.47;;;1.33;;
75413;SDS011;64758;52.122;5.404;2023-07-13T15:27:41;2.95;;;1.73;;
75413;SDS011;64758;52.122;5.404;2023-07-13T15:30:08;2.50;;;1.77;;
75413;SDS011;64758;52.122;5.404;2023-07-13T15:32:35;3.03;;;1.60;;
75413;SDS011;64758;52.122;5.404;2023-07-13T15:35:02;4.68;;;1.83;;
75413;SDS011;64758;52.122;5.404;2023-07-13T15:37:29;3.27;;;1.43;;
75413;SDS011;64758;52.122;5.404;2023-07-13T15:39:55;6.03;;;1.55;;
75413;SDS011;64758;52.122;5.404;2023-07-13T15:42:22;4.80;;;1.75;;
75413;SDS011;64758;52.122;5.404;2023-07-13T15:44:49;3.65;;;1.40;;